Time;durP1;ratioP1;P1;durP2;ratioP2;P2;SDS_P1;SDS_P2;PMS_P1;PMS_P2;Temp;Humidity;BMP_temperature;BMP_pressure;BME280_temperature;BME280_humidity;BME280_pressure;Samples;Min_cycle;Max_cycle;Signal;HPM_P1;HPM_P2
2022/09/02 00:00:40;;;;;;;0.17;0.00;;;16.50;99.90;;;;;;5046716;28;20035;-76
2022/09/02 00:03:05;;;;;;;0.20;0.00;;;16.40;99.90;;;;;;5046372;28;20087;-77
2022/09/02 00:05:31;;;;;;;0.68;0.00;;;16.40;99.90;;;;;;5045695;28;20489;-77
2022/09/02 00:07:56;;;;;;;0.20;0.00;;;16.40;99.90;;;;;;5027224;28;20029;-77
2022/09/02 00:10:22;;;;;;;0.85;0.10;;;16.30;99.90;;;;;;5047532;28;20041;-76
2022/09/02 00:12:48;;;;;;;0.22;0.00;;;16.30;99.90;;;;;;5021333;28;20025;-77
2022/09/02 00:15:13;;;;;;;1.52;0.10;;;16.20;99.90;;;;;;5028445;28;20037;-77
2022/09/02 00:17:39;;;;;;;1.60;0.10;;;16.10;99.90;;;;;;5026481;28;20037;-77
2022/09/02 00:20:05;;;;;;;0.85;0.00;;;16.10;99.90;;;;;;5028159;28;20029;-76
2022/09/02 00:22:31;;;;;;;0.90;0.00;;;16.00;99.90;;;;;;5047678;28;20052;-76
2022/09/02 00:24:57;;;;;;;0.30;0.03;;;15.90;99.90;;;;;;5029024;28;20064;-77
2022/09/02 00:27:22;;;;;;;0.20;0.00;;;15.80;99.90;;;;;;5046552;28;20063;-77
2022/09/02 00:29:48;;;;;;;1.25;0.10;;;15.70;99.90;;;;;;5025730;28;20059;-77
2022/09/02 00:32:14;;;;;;;1.05;0.00;;;15.60;99.90;;;;;;5025366;28;20075;-76
2022/09/02 00:34:39;;;;;;;0.20;0.00;;;15.50;99.90;;;;;;5010462;28;20120;-76
2022/09/02 00:37:05;;;;;;;1.10;0.00;;;15.50;99.90;;;;;;5027320;28;20063;-76
2022/09/02 00:39:31;;;;;;;0.88;0.10;;;15.40;99.90;;;;;;5026182;28;20125;-77
2022/09/02 00:41:57;;;;;;;1.30;0.10;;;15.40;99.90;;;;;;5010214;28;20036;-76
2022/09/02 00:44:23;;;;;;;0.20;0.00;;;15.30;99.90;;;;;;5045180;28;20040;-77
2022/09/02 00:46:48;;;;;;;0.40;0.10;;;15.20;99.90;;;;;;5026898;28;20056;-76
2022/09/02 00:49:25;;;;;;;0.35;0.10;;;15.20;99.90;;;;;;5045227;28;20021;-76
2022/09/02 00:51:57;;;;;;;0.10;0.00;;;15.20;99.90;;;;;;5043880;28;20021;-76
2022/09/02 00:54:25;;;;;;;0.63;0.10;;;15.10;99.90;;;;;;5043355;28;20026;-77
2022/09/02 00:56:52;;;;;;;0.60;0.00;;;15.00;99.90;;;;;;5028941;28;20033;-77
2022/09/02 00:59:25;;;;;;;0.10;0.00;;;15.00;99.90;;;;;;5038229;28;20385;-77
2022/09/02 01:01:50;;;;;;;1.95;0.00;;;15.00;99.90;;;;;;5042854;28;20029;-77
2022/09/02 01:04:16;;;;;;;0.20;0.00;;;14.90;99.90;;;;;;5043848;28;20508;-76
2022/09/02 01:06:42;;;;;;;0.60;0.10;;;14.90;99.90;;;;;;5010601;28;20120;-77
2022/09/02 01:09:13;;;;;;;1.02;0.10;;;15.00;99.90;;;;;;5025476;28;20045;-76
2022/09/02 01:11:46;;;;;;;0.55;0.10;;;15.00;99.90;;;;;;5008926;28;20044;-76
2022/09/02 01:14:14;;;;;;;0.35;0.08;;;15.00;99.90;;;;;;5019611;28;20029;-77
2022/09/02 01:16:42;;;;;;;0.55;0.00;;;15.00;99.90;;;;;;5028159;28;20374;-76
2022/09/02 01:19:17;;;;;;;0.43;0.00;;;15.00;99.90;;;;;;5044658;28;20466;-76
2022/09/02 01:21:51;;;;;;;1.17;0.00;;;15.10;99.90;;;;;;5045742;28;20037;-77
2022/09/02 01:24:19;;;;;;;1.10;0.10;;;15.10;99.90;;;;;;5024783;28;20162;-77
2022/09/02 01:26:45;;;;;;;1.40;0.10;;;15.00;99.90;;;;;;5026342;28;20491;-77
2022/09/02 01:29:10;;;;;;;0.40;0.10;;;15.10;99.90;;;;;;5043638;28;20017;-76
2022/09/02 01:31:37;;;;;;;0.40;0.10;;;15.10;99.90;;;;;;5025559;28;20444;-76
2022/09/02 01:34:05;;;;;;;0.20;0.00;;;15.10;99.90;;;;;;5043001;28;20326;-76
2022/09/02 01:36:31;;;;;;;0.20;0.10;;;15.10;99.90;;;;;;5025814;28;20021;-77
2022/09/02 01:38:57;;;;;;;0.43;0.00;;;15.00;99.90;;;;;;5043297;28;20380;-77
2022/09/02 01:41:23;;;;;;;0.60;0.10;;;15.00;99.90;;;;;;5044792;28;20128;-77
2022/09/02 01:43:49;;;;;;;0.45;0.10;;;15.00;99.90;;;;;;5023797;28;20039;-77
2022/09/02 01:46:15;;;;;;;0.50;0.10;;;15.00;99.90;;;;;;5026633;28;20029;-78
2022/09/02 01:48:40;;;;;;;0.22;0.10;;;15.00;99.90;;;;;;5025220;28;20478;-77
2022/09/02 01:51:06;;;;;;;0.82;0.03;;;15.00;99.90;;;;;;5010529;28;20408;-76
2022/09/02 01:53:32;;;;;;;0.77;0.10;;;15.00;99.90;;;;;;5040647;28;20078;-77
2022/09/02 01:55:59;;;;;;;0.20;0.00;;;15.00;99.90;;;;;;5026733;28;20385;-76
2022/09/02 01:58:27;;;;;;;0.22;0.10;;;15.10;99.90;;;;;;5024747;28;20033;-77
2022/09/02 02:00:53;;;;;;;0.82;0.10;;;15.10;99.90;;;;;;5026425;28;20048;-77
2022/09/02 02:03:19;;;;;;;0.22;0.10;;;15.10;99.90;;;;;;5027334;28;20025;-77
2022/09/02 02:05:45;;;;;;;0.30;0.10;;;15.10;99.90;;;;;;5023594;28;20121;-76
2022/09/02 02:08:14;;;;;;;0.20;0.00;;;15.10;99.90;;;;;;5013608;28;20048;-76
2022/09/02 02:10:41;;;;;;;0.20;0.05;;;15.10;99.90;;;;;;5008635;28;20076;-76
2022/09/02 02:13:08;;;;;;;1.25;0.10;;;15.10;99.90;;;;;;5023050;28;20044;-77
2022/09/02 02:15:38;;;;;;;0.22;0.10;;;15.00;99.90;;;;;;5019594;28;20485;-76
2022/09/02 02:18:04;;;;;;;0.30;0.10;;;15.00;99.90;;;;;;5025270;28;20021;-77
2022/09/02 02:20:31;;;;;;;0.20;0.10;;;15.00;99.90;;;;;;5024999;28;20561;-76
2022/09/02 02:22:56;;;;;;;1.10;0.00;;;14.90;99.90;;;;;;5046155;28;20049;-77
2022/09/02 02:25:22;;;;;;;1.25;0.10;;;14.90;99.90;;;;;;5024106;28;20489;-76
2022/09/02 02:27:51;;;;;;;0.90;0.00;;;14.90;99.90;;;;;;5024383;28;20120;-76
2022/09/02 02:30:18;;;;;;;0.73;0.00;;;14.80;99.90;;;;;;5026377;28;20119;-76
2022/09/02 02:32:46;;;;;;;1.10;0.00;;;14.70;99.90;;;;;;5024984;28;20481;-76
2022/09/02 02:35:14;;;;;;;;;;;14.70;99.90;;;;;;5027255;28;20052;-77
2022/09/02 02:37:41;;;;;;;0.30;0.10;;;14.70;99.90;;;;;;5025678;28;19954;-76
2022/09/02 02:40:08;;;;;;;0.40;0.10;;;14.60;99.90;;;;;;5023682;28;20571;-77
2022/09/02 02:42:34;;;;;;;0.20;0.00;;;14.60;99.90;;;;;;5025363;28;20029;-76
2022/09/02 02:45:00;;;;;;;0.50;0.10;;;14.60;99.90;;;;;;5024587;28;20135;-76
2022/09/02 02:47:26;;;;;;;0.20;0.00;;;14.60;99.90;;;;;;5025940;28;20485;-76
2022/09/02 02:49:52;;;;;;;0.20;0.05;;;14.60;99.90;;;;;;5025280;28;20029;-77
2022/09/02 02:52:18;;;;;;;0.30;0.10;;;14.70;99.90;;;;;;5010196;28;20029;-76
2022/09/02 02:54:44;;;;;;;0.17;0.05;;;14.70;99.90;;;;;;5043324;28;20020;-77
2022/09/02 02:57:11;;;;;;;0.30;0.10;;;14.60;99.90;;;;;;5025933;28;20037;-77
2022/09/02 02:59:37;;;;;;;0.70;0.10;;;14.60;99.90;;;;;;5025939;28;20116;-77
2022/09/02 03:02:05;;;;;;;0.10;0.00;;;14.60;99.90;;;;;;5024982;28;20029;-77
2022/09/02 03:04:31;;;;;;;0.17;0.00;;;14.50;99.90;;;;;;5007939;28;20022;-76
2022/09/02 03:06:56;;;;;;;0.55;0.00;;;14.60;99.90;;;;;;5044194;28;20030;-76
2022/09/02 03:09:22;;;;;;;0.10;0.00;;;14.60;99.90;;;;;;5025023;28;20444;-77
2022/09/02 03:11:48;;;;;;;0.35;0.00;;;14.50;99.90;;;;;;5012874;28;20067;-76
2022/09/02 03:14:15;;;;;;;0.50;0.10;;;14.50;99.90;;;;;;5025725;28;20112;-77
2022/09/02 03:16:40;;;;;;;1.95;0.00;;;14.50;99.90;;;;;;5008406;28;20307;-76
2022/09/02 03:19:06;;;;;;;1.00;0.00;;;14.50;99.90;;;;;;5011786;28;20251;-77
2022/09/02 03:21:32;;;;;;;0.82;0.10;;;14.60;99.90;;;;;;5024597;28;20037;-76
2022/09/02 03:23:59;;;;;;;0.85;0.10;;;14.60;99.90;;;;;;5011009;28;20064;-77
2022/09/02 03:26:25;;;;;;;0.30;0.03;;;14.60;99.90;;;;;;5015124;28;20048;-76
2022/09/02 03:28:55;;;;;;;0.10;0.00;;;14.60;99.90;;;;;;5025572;28;20021;-76
2022/09/02 03:31:23;;;;;;;7.97;0.20;;;14.70;99.90;;;;;;5026772;28;20065;-76
2022/09/02 03:33:49;;;;;;;0.20;0.00;;;14.70;99.90;;;;;;5023622;28;20033;-77
2022/09/02 03:36:30;;;;;;;0.45;0.10;;;14.70;99.90;;;;;;5022992;28;20345;-77
2022/09/02 03:38:57;;;;;;;0.20;0.00;;;14.70;99.90;;;;;;5045046;28;20381;-76
2022/09/02 03:41:23;;;;;;;0.32;0.10;;;14.70;99.90;;;;;;5046456;28;20041;-76
2022/09/02 03:43:50;;;;;;;0.30;0.10;;;14.70;99.90;;;;;;5026870;28;20477;-77
2022/09/02 03:46:17;;;;;;;0.30;0.10;;;14.70;99.90;;;;;;5022010;28;20031;-77
2022/09/02 03:48:43;;;;;;;0.98;0.10;;;14.60;99.90;;;;;;5046672;28;20029;-76
2022/09/02 03:51:11;;;;;;;0.30;0.00;;;14.70;99.90;;;;;;5027593;28;20061;-76
2022/09/02 03:53:37;;;;;;;1.65;0.03;;;14.60;99.90;;;;;;5026022;28;20052;-76
2022/09/02 03:56:07;;;;;;;0.40;0.10;;;14.70;99.90;;;;;;5027567;28;20025;-77
2022/09/02 03:58:35;;;;;;;1.98;0.10;;;14.60;99.90;;;;;;5028618;28;20032;-77
2022/09/02 04:01:02;;;;;;;0.30;0.10;;;14.60;99.90;;;;;;5027750;28;20025;-77
2022/09/02 04:03:29;;;;;;;0.20;0.00;;;14.60;99.90;;;;;;5026739;28;20064;-77
2022/09/02 04:05:55;;;;;;;0.30;0.08;;;14.50;99.90;;;;;;5028100;28;20129;-76
2022/09/02 04:08:23;;;;;;;0.43;0.10;;;14.60;99.90;;;;;;5027736;28;20028;-77
2022/09/02 04:10:51;;;;;;;0.40;0.00;;;14.50;99.90;;;;;;5026924;28;20041;-77
2022/09/02 04:13:17;;;;;;;0.57;0.00;;;14.50;99.90;;;;;;5027609;28;20036;-75
2022/09/02 04:15:46;;;;;;;0.20;0.00;;;14.50;99.90;;;;;;5044870;28;20029;-76
2022/09/02 04:18:14;;;;;;;0.52;0.10;;;14.50;99.90;;;;;;5027684;28;20480;-76
2022/09/02 04:20:42;;;;;;;0.20;0.00;;;14.50;99.90;;;;;;5046281;28;20037;-76
2022/09/02 04:23:07;;;;;;;0.30;0.10;;;14.50;99.90;;;;;;5027931;28;20055;-76
2022/09/02 04:25:40;;;;;;;0.17;0.00;;;14.50;99.90;;;;;;5029755;28;20046;-76
2022/09/02 04:28:07;;;;;;;0.80;0.10;;;14.50;99.90;;;;;;5027901;28;20025;-76
2022/09/02 04:30:33;;;;;;;0.30;0.00;;;14.40;99.90;;;;;;5006806;28;20043;-76
2022/09/02 04:32:59;;;;;;;0.40;0.10;;;14.40;99.90;;;;;;5023608;28;20052;-76
2022/09/02 04:35:25;;;;;;;1.38;0.10;;;14.40;99.90;;;;;;5010022;28;20478;-76
2022/09/02 04:37:50;;;;;;;0.95;0.05;;;14.40;99.90;;;;;;5025702;28;20025;-76
2022/09/02 04:40:17;;;;;;;0.43;0.10;;;14.40;99.90;;;;;;5031602;28;20129;-77
2022/09/02 04:42:43;;;;;;;0.50;0.10;;;14.40;99.90;;;;;;5027210;28;20036;-76
2022/09/02 04:45:09;;;;;;;0.47;0.10;;;14.40;99.90;;;;;;5027671;28;20035;-76
2022/09/02 04:47:37;;;;;;;0.22;0.00;;;14.40;99.90;;;;;;5027454;28;20020;-76
2022/09/02 04:50:03;;;;;;;0.55;0.10;;;14.40;99.90;;;;;;5024726;28;20044;-76
2022/09/02 04:52:32;;;;;;;0.30;0.10;;;14.40;99.90;;;;;;5027028;28;20143;-76
2022/09/02 04:54:58;;;;;;;1.65;0.10;;;14.40;99.90;;;;;;5025652;28;20032;-76
2022/09/02 04:57:25;;;;;;;1.00;0.10;;;14.40;99.90;;;;;;5020993;28;20037;-75
2022/09/02 04:59:50;;;;;;;0.40;0.20;;;14.40;99.90;;;;;;5026191;28;20033;-76
2022/09/02 05:02:17;;;;;;;1.30;0.00;;;14.40;99.90;;;;;;5027587;28;20547;-76
2022/09/02 05:04:42;;;;;;;0.38;0.10;;;14.40;99.90;;;;;;5042544;28;20103;-76
2022/09/02 05:07:24;;;;;;;0.10;0.00;;;14.40;99.90;;;;;;5026848;28;20044;-76
2022/09/02 05:09:58;;;;;;;0.40;0.10;;;14.50;99.90;;;;;;5026476;28;20481;-76
2022/09/02 05:12:26;;;;;;;0.30;0.00;;;14.50;99.90;;;;;;5025533;28;20025;-75
2022/09/02 05:14:57;;;;;;;0.52;0.03;;;14.50;99.90;;;;;;5025417;28;20027;-76
2022/09/02 05:17:23;;;;;;;1.42;0.10;;;14.60;99.90;;;;;;5025639;28;20120;-75
2022/09/02 05:19:49;;;;;;;0.68;0.10;;;14.60;99.90;;;;;;5025076;28;20021;-76
2022/09/02 05:22:15;;;;;;;0.73;0.08;;;14.60;99.90;;;;;;5011847;28;20071;-76
2022/09/02 05:24:42;;;;;;;0.40;0.00;;;14.70;99.90;;;;;;5009506;28;20762;-76
2022/09/02 05:27:12;;;;;;;0.35;0.10;;;14.70;99.90;;;;;;5026486;28;20037;-76
2022/09/02 05:29:38;;;;;;;0.63;0.10;;;14.70;99.90;;;;;;5024604;28;20158;-76
2022/09/02 05:32:07;;;;;;;0.65;0.10;;;14.70;99.90;;;;;;5042002;28;20024;-76
2022/09/02 05:34:34;;;;;;;2.22;0.10;;;14.80;99.90;;;;;;5007803;28;20591;-76
2022/09/02 05:37:03;;;;;;;0.52;0.03;;;14.80;99.90;;;;;;5024358;28;20384;-76
2022/09/02 05:39:31;;;;;;;1.95;0.10;;;14.90;99.90;;;;;;5024956;28;20022;-76
2022/09/02 05:41:57;;;;;;;0.57;0.10;;;14.90;99.90;;;;;;5008127;28;20086;-76
2022/09/02 05:44:23;;;;;;;0.95;0.10;;;14.90;99.90;;;;;;5024604;28;20079;-76
2022/09/02 05:46:49;;;;;;;0.52;0.05;;;14.90;99.90;;;;;;5025576;28;20469;-76
2022/09/02 05:49:16;;;;;;;1.25;0.10;;;14.90;99.90;;;;;;5024121;28;20066;-76
2022/09/02 05:51:59;;;;;;;1.25;0.10;;;14.90;99.90;;;;;;5008316;28;20070;-76
2022/09/02 05:54:38;;;;;;;0.10;0.00;;;14.90;99.90;;;;;;5023788;28;20072;-76
2022/09/02 05:57:10;;;;;;;1.58;0.10;;;14.90;99.90;;;;;;5020108;28;20029;-76
2022/09/02 05:59:41;;;;;;;0.50;0.10;;;14.90;99.90;;;;;;5025368;28;20025;-76
2022/09/02 06:02:13;;;;;;;0.47;0.10;;;14.90;99.90;;;;;;5006148;28;20120;-77
2022/09/02 06:04:41;;;;;;;1.05;0.10;;;14.90;99.90;;;;;;5041466;28;20444;-76
2022/09/02 06:07:08;;;;;;;0.43;0.10;;;15.00;99.90;;;;;;5025129;28;20622;-76
2022/09/02 06:09:34;;;;;;;0.50;0.10;;;15.00;99.90;;;;;;5024894;28;20072;-76
2022/09/02 06:12:01;;;;;;;0.60;0.10;;;15.10;99.90;;;;;;5012026;28;20082;-76
2022/09/02 06:14:29;;;;;;;0.40;0.10;;;15.20;99.90;;;;;;5024282;28;20028;-76
2022/09/02 06:16:57;;;;;;;0.30;0.10;;;15.30;99.90;;;;;;5041848;28;20096;-76
2022/09/02 06:19:46;;;;;;;2.15;0.10;;;15.40;99.90;;;;;;5014192;28;20116;-76
2022/09/02 06:22:12;;;;;;;0.30;0.00;;;15.50;99.90;;;;;;5021722;28;20067;-76
2022/09/02 06:24:38;;;;;;;1.17;0.00;;;15.50;99.90;;;;;;5024300;28;20032;-76
2022/09/02 06:27:09;;;;;;;0.68;0.10;;;15.70;99.90;;;;;;5023065;28;20390;-76
2022/09/02 06:29:42;;;;;;;0.52;0.10;;;15.80;99.90;;;;;;5041707;28;20029;-76
2022/09/02 06:32:09;;;;;;;0.35;0.00;;;15.80;99.90;;;;;;5023360;28;20952;-76
2022/09/02 06:34:35;;;;;;;0.28;0.10;;;15.90;99.90;;;;;;5026439;28;20028;-76
2022/09/02 06:37:02;;;;;;;0.75;0.00;;;16.00;99.90;;;;;;5025547;28;20509;-76
2022/09/02 06:39:27;;;;;;;1.08;0.10;;;16.00;99.90;;;;;;5005769;28;20025;-76
2022/09/02 06:41:55;;;;;;;2.10;0.20;;;16.00;99.90;;;;;;5006159;28;20107;-76
2022/09/02 06:44:23;;;;;;;0.35;0.10;;;16.00;99.90;;;;;;5023542;28;20133;-76
2022/09/02 06:46:54;;;;;;;1.25;0.10;;;16.00;99.90;;;;;;5040575;28;20040;-77
2022/09/02 06:49:21;;;;;;;1.85;0.10;;;15.90;99.90;;;;;;5006499;28;20032;-76
2022/09/02 06:51:50;;;;;;;0.30;0.10;;;16.00;99.90;;;;;;5023977;28;20041;-76
2022/09/02 06:54:20;;;;;;;2.42;0.17;;;16.00;99.90;;;;;;5016857;28;20123;-77
2022/09/02 06:56:49;;;;;;;0.47;0.10;;;16.10;99.90;;;;;;5023095;28;20127;-76
2022/09/02 06:59:19;;;;;;;0.40;0.10;;;16.10;99.90;;;;;;5028184;28;20110;-77
2022/09/02 07:01:49;;;;;;;0.93;0.10;;;16.10;99.90;;;;;;5025485;28;20280;-78
2022/09/02 07:07:05;;;;;;;1.45;0.10;;;16.20;99.90;;;;;;5040080;28;20383;-76
2022/09/02 07:09:34;;;;;;;2.05;0.10;;;16.70;99.90;;;;;;5027452;28;20036;-76
2022/09/02 07:12:09;;;;;;;1.77;0.20;;;17.00;99.90;;;;;;5027374;28;20028;-76
2022/09/02 07:14:41;;;;;;;0.85;0.10;;;17.30;99.90;;;;;;5049260;28;20386;-76
2022/09/02 07:17:09;;;;;;;1.83;0.13;;;17.50;99.90;;;;;;5027558;28;20090;-77
2022/09/02 07:19:36;;;;;;;0.50;0.10;;;17.50;99.90;;;;;;5029597;28;20029;-77
2022/09/02 07:22:04;;;;;;;0.60;0.10;;;17.40;99.90;;;;;;5052105;28;21958;-77
2022/09/02 07:24:30;;;;;;;2.60;0.10;;;17.20;99.90;;;;;;5031197;28;20400;-76
2022/09/02 07:26:57;;;;;;;4.05;0.10;;;17.00;99.90;;;;;;5029717;28;20028;-76
2022/09/02 07:29:24;;;;;;;0.55;0.10;;;16.90;99.90;;;;;;5019032;28;20021;-77
2022/09/02 07:31:50;;;;;;;4.07;0.10;;;16.80;99.90;;;;;;5018588;28;20505;-76
2022/09/02 07:34:18;;;;;;;1.67;0.45;;;16.80;99.90;;;;;;5028909;28;20037;-75
2022/09/02 07:36:47;;;;;;;0.90;0.10;;;16.80;99.90;;;;;;5027415;28;20112;-75
2022/09/02 07:39:16;;;;;;;0.95;0.10;;;16.80;99.90;;;;;;5046596;28;20029;-76
2022/09/02 07:41:45;;;;;;;0.82;0.10;;;16.80;99.90;;;;;;5028760;28;20037;-76
2022/09/02 07:44:12;;;;;;;0.98;0.10;;;17.10;99.90;;;;;;5013131;28;20056;-76
2022/09/02 07:46:39;;;;;;;0.47;0.10;;;17.70;99.90;;;;;;5009142;28;20025;-76
2022/09/02 07:49:09;;;;;;;0.65;0.10;;;18.10;99.90;;;;;;5025849;28;20036;-76
2022/09/02 07:51:37;;;;;;;1.00;0.10;;;18.30;99.90;;;;;;5027462;28;20049;-76
2022/09/02 07:54:05;;;;;;;0.30;0.10;;;18.60;99.90;;;;;;5026561;28;20079;-76
2022/09/02 07:56:32;;;;;;;0.80;0.10;;;18.90;99.90;;;;;;5009159;28;20064;-76
2022/09/02 07:58:58;;;;;;;1.48;0.10;;;19.10;99.90;;;;;;5027096;28;20389;-76
2022/09/02 08:01:24;;;;;;;2.33;0.10;;;19.30;99.90;;;;;;5031946;28;20039;-77
2022/09/02 08:03:52;;;;;;;4.05;0.10;;;19.50;99.90;;;;;;5029120;28;20083;-77
2022/09/02 08:06:19;;;;;;;1.95;0.10;;;19.80;99.90;;;;;;5029050;28;20147;-76
2022/09/02 08:08:45;;;;;;;0.55;0.10;;;20.10;99.90;;;;;;5030360;28;20029;-76
2022/09/02 08:11:11;;;;;;;0.40;0.00;;;20.20;99.90;;;;;;5027099;28;20044;-76
2022/09/02 08:13:39;;;;;;;1.63;0.10;;;20.40;99.90;;;;;;5045094;28;20017;-76
2022/09/02 08:16:05;;;;;;;0.77;0.10;;;20.80;99.90;;;;;;5029063;28;20430;-77
2022/09/02 08:18:31;;;;;;;1.27;0.10;;;20.90;99.90;;;;;;5029372;28;20120;-76
2022/09/02 08:20:57;;;;;;;2.03;0.10;;;21.10;99.90;;;;;;5044409;28;20021;-76
2022/09/02 08:23:23;;;;;;;0.38;0.10;;;21.20;99.90;;;;;;5032366;28;20380;-76
2022/09/02 08:25:48;;;;;;;1.00;0.10;;;21.10;99.90;;;;;;5046514;28;20017;-77
2022/09/02 08:28:14;;;;;;;0.40;0.05;;;21.40;99.90;;;;;;5030328;28;20556;-76
2022/09/02 08:30:40;;;;;;;0.73;0.10;;;21.70;99.90;;;;;;5029412;28;20543;-76
2022/09/02 08:33:06;;;;;;;1.13;0.30;;;21.80;99.90;;;;;;5012107;28;20453;-77
2022/09/02 08:35:31;;;;;;;2.53;0.10;;;21.90;99.90;;;;;;5029934;28;20044;-76
2022/09/02 08:37:58;;;;;;;0.82;0.10;;;21.90;99.90;;;;;;5028495;28;20021;-76
2022/09/02 08:40:35;;;;;;;1.08;0.10;;;22.00;99.90;;;;;;5041584;28;20048;-76
2022/09/02 08:43:02;;;;;;;1.08;0.13;;;22.10;99.90;;;;;;5037709;28;20476;-76
2022/09/02 08:45:38;;;;;;;0.47;0.10;;;22.20;99.90;;;;;;5028351;28;20208;-76
2022/09/02 08:48:13;;;;;;;3.47;0.20;;;22.10;99.90;;;;;;5040540;28;20034;-76
2022/09/02 08:50:43;;;;;;;2.45;0.20;;;22.40;99.90;;;;;;5010826;28;20489;-77
2022/09/02 08:53:21;;;;;;;0.80;0.10;;;22.40;99.90;;;;;;5029231;28;20041;-76
2022/09/02 08:55:55;;;;;;;2.00;0.10;;;22.80;99.90;;;;;;5035316;28;20044;-77
2022/09/02 08:58:27;;;;;;;0.60;0.10;;;22.90;99.90;;;;;;5045389;28;20021;-78
2022/09/02 09:01:23;;;;;;;1.52;0.10;;;23.00;99.90;;;;;;5043013;28;20028;-77
2022/09/02 09:04:14;;;;;;;3.85;0.20;;;23.00;99.90;;;;;;5028209;28;20505;-78
2022/09/02 09:07:02;;;;;;;0.70;0.15;;;22.90;99.90;;;;;;5032349;28;20037;-78
2022/09/02 09:09:39;;;;;;;0.47;0.10;;;22.90;99.90;;;;;;5043262;28;20029;-77
2022/09/02 09:12:17;;;;;;;1.95;0.20;;;22.90;99.90;;;;;;5040834;28;20143;-77
2022/09/02 09:14:50;;;;;;;0.73;0.20;;;23.30;99.90;;;;;;5026884;28;20028;-78
2022/09/02 09:17:28;;;;;;;0.65;0.13;;;23.30;99.90;;;;;;5024773;28;20041;-77
2022/09/02 09:19:59;;;;;;;1.13;0.10;;;23.00;99.90;;;;;;5044361;28;20037;-77
2022/09/02 09:22:32;;;;;;;2.33;0.10;;;23.10;99.90;;;;;;5043964;28;20293;-77
2022/09/02 09:24:58;;;;;;;1.25;0.10;;;23.30;99.90;;;;;;5024254;28;20044;-77
2022/09/02 09:27:24;;;;;;;1.80;0.10;;;23.50;99.90;;;;;;5037657;28;20072;-77
2022/09/02 09:29:51;;;;;;;0.40;0.10;;;23.70;99.90;;;;;;5026089;28;20470;-78
2022/09/02 09:32:37;;;;;;;0.52;0.10;;;23.80;99.90;;;;;;5023089;28;20040;-78
2022/09/02 09:35:12;;;;;;;0.50;0.10;;;23.80;99.90;;;;;;5023497;28;20039;-79
2022/09/02 09:37:47;;;;;;;0.98;0.10;;;24.00;99.90;;;;;;5025227;28;20039;-80
2022/09/02 09:40:24;;;;;;;2.78;0.20;;;23.90;99.90;;;;;;5009527;28;20543;-78
2022/09/02 09:43:04;;;;;;;1.58;0.20;;;24.00;99.90;;;;;;5024135;28;20036;-79
2022/09/02 09:45:37;;;;;;;0.60;0.15;;;24.00;99.90;;;;;;5008097;28;20087;-80
2022/09/02 09:48:26;;;;;;;1.65;0.20;;;24.40;99.90;;;;;;5042439;28;20102;-79
2022/09/02 09:50:54;;;;;;;0.50;0.10;;;24.60;99.90;;;;;;5039828;28;20094;-80
2022/09/02 09:53:27;;;;;;;0.95;0.20;;;24.60;99.90;;;;;;5017739;28;20025;-79
2022/09/02 09:56:05;;;;;;;1.85;0.20;;;24.60;99.90;;;;;;5022425;28;20040;-77
2022/09/02 09:58:38;;;;;;;1.30;0.22;;;24.40;99.90;;;;;;5023824;28;20476;-77
2022/09/02 10:01:25;;;;;;;0.52;0.17;;;24.70;99.90;;;;;;5026153;28;20035;-77
2022/09/02 10:03:52;;;;;;;0.68;0.10;;;24.90;99.90;;;;;;5041766;28;20021;-78
2022/09/02 10:06:24;;;;;;;0.80;0.20;;;24.90;99.90;;;;;;5025596;28;20032;-78
2022/09/02 10:08:51;;;;;;;0.60;0.20;;;25.10;99.90;;;;;;5038044;28;20029;-78
2022/09/02 10:11:38;;;;;;;2.25;0.20;;;25.40;99.90;;;;;;5023591;28;20509;-78
2022/09/02 10:14:07;;;;;;;2.22;0.60;;;25.50;99.90;;;;;;5022435;28;20052;-77
2022/09/02 10:16:36;;;;;;;1.27;0.20;;;25.60;99.90;;;;;;5040329;28;20255;-77
2022/09/02 10:19:26;;;;;;;0.52;0.17;;;25.40;99.90;;;;;;5043518;28;20120;-78
2022/09/02 10:22:20;;;;;;;0.88;0.20;;;25.30;99.90;;;;;;5042595;28;20036;-78
2022/09/02 10:25:06;;;;;;;0.90;0.20;;;25.40;99.90;;;;;;5021804;28;20017;-77
2022/09/02 10:27:51;;;;;;;1.52;0.20;;;25.70;99.90;;;;;;5025242;28;20029;-77
2022/09/02 10:30:21;;;;;;;0.70;0.10;;;25.90;99.90;;;;;;5023667;28;20037;-77
2022/09/02 10:33:14;;;;;;;2.00;0.30;;;26.00;99.90;;;;;;5024627;28;20048;-78
2022/09/02 10:35:46;;;;;;;0.80;0.20;;;25.50;99.90;;;;;;5041743;28;20548;-77
2022/09/02 10:38:38;;;;;;;0.65;0.20;;;25.50;99.90;;;;;;5024120;28;20021;-77
2022/09/02 10:41:16;;;;;;;0.70;0.20;;;25.80;99.90;;;;;;5042077;28;20040;-77
2022/09/02 10:43:54;;;;;;;0.45;0.20;;;26.20;99.90;;;;;;5041586;28;20021;-82
2022/09/02 10:46:24;;;;;;;0.50;0.15;;;26.50;99.90;;;;;;5039295;28;20057;-76
2022/09/02 10:49:03;;;;;;;1.30;0.22;;;26.70;99.90;;;;;;5026557;28;20083;-79
2022/09/02 10:51:43;;;;;;;0.73;0.22;;;26.60;99.90;;;;;;5029536;28;20053;-77
2022/09/02 10:54:35;;;;;;;1.20;0.20;;;26.50;99.90;;;;;;5012832;28;20034;-78
2022/09/02 10:57:09;;;;;;;0.95;0.20;;;26.80;99.90;;;;;;5026662;28;20036;-78
2022/09/02 10:59:50;;;;;;;1.67;0.20;;;26.80;99.90;;;;;;5046845;28;20451;-79
2022/09/02 11:02:29;;;;;;;0.40;0.20;;;26.70;99.90;;;;;;5028115;28;20028;-77
2022/09/02 11:04:58;;;;;;;0.73;0.22;;;26.80;99.90;;;;;;5030896;28;20025;-80
2022/09/02 11:07:35;;;;;;;0.80;0.20;;;27.00;99.90;;;;;;5045308;28;20045;-77
2022/09/02 11:10:15;;;;;;;0.65;0.20;;;26.80;99.90;;;;;;5012075;28;20037;-77
2022/09/02 11:12:49;;;;;;;0.50;0.20;;;26.90;99.90;;;;;;5026271;28;20474;-77
2022/09/02 11:15:26;;;;;;;0.30;0.10;;;27.20;99.90;;;;;;5027622;28;20112;-77
2022/09/02 11:18:06;;;;;;;0.30;0.17;;;27.10;99.90;;;;;;5045652;28;20025;-78
2022/09/02 11:20:56;;;;;;;1.00;0.20;;;27.10;99.90;;;;;;5043987;28;20026;-77
2022/09/02 11:23:27;;;;;;;;;;;27.20;99.90;;;;;;5015351;28;20391;-78
2022/09/02 11:26:03;;;;;;;0.73;0.20;;;27.90;99.80;;;;;;5045234;28;20079;-80
2022/09/02 11:28:31;;;;;;;1.27;0.20;;;28.00;99.90;;;;;;5029109;28;20420;-77
2022/09/02 11:31:13;;;;;;;0.50;0.20;;;27.70;99.80;;;;;;5040677;28;20039;-79
2022/09/02 11:34:01;;;;;;;2.25;0.20;;;27.60;99.90;;;;;;5028518;28;20485;-80
2022/09/02 11:36:28;;;;;;;1.35;0.40;;;27.40;99.70;;;;;;5026083;28;20041;-78
2022/09/02 11:39:04;;;;;;;3.30;0.20;;;27.50;99.70;;;;;;5028177;28;20456;-79
2022/09/02 11:42:05;;;;;;;0.38;0.10;;;27.60;99.10;;;;;;5044306;28;20049;-81
2022/09/02 11:44:57;;;;;;;0.75;0.20;;;27.50;99.20;;;;;;5024718;28;20028;-80
2022/09/02 11:47:25;;;;;;;0.47;0.15;;;27.70;98.70;;;;;;5008263;28;20053;-80
2022/09/02 11:50:30;;;;;;;1.00;0.20;;;27.60;98.80;;;;;;5018323;28;20052;-78
2022/09/02 11:53:16;;;;;;;0.50;0.15;;;27.30;98.90;;;;;;4987845;28;20029;-81
2022/09/02 11:55:56;;;;;;;0.55;0.20;;;27.50;99.10;;;;;;5024594;28;20458;-78
2022/09/02 11:58:35;;;;;;;0.55;0.20;;;27.20;98.10;;;;;;5024877;28;20032;-78
2022/09/02 12:01:13;;;;;;;;;;;27.50;98.50;;;;;;5042521;28;20640;-78
2022/09/02 12:03:46;;;;;;;0.40;0.10;;;27.80;97.80;;;;;;5024143;28;20007;-77
2022/09/02 12:06:15;;;;;;;0.70;0.10;;;27.60;97.30;;;;;;5042238;28;20029;-77
2022/09/02 12:08:42;;;;;;;0.20;0.10;;;27.80;97.50;;;;;;5043786;28;20028;-77
2022/09/02 12:11:10;;;;;;;0.40;0.10;;;27.80;97.90;;;;;;5025454;28;20041;-76
2022/09/02 12:13:47;;;;;;;0.65;0.10;;;27.70;97.50;;;;;;5043415;28;21225;-78
2022/09/02 12:16:18;;;;;;;0.50;0.10;;;27.40;97.40;;;;;;5044280;28;20037;-77
2022/09/02 12:19:07;;;;;;;1.42;0.10;;;27.30;97.10;;;;;;5026930;28;20190;-77
2022/09/02 12:21:37;;;;;;;0.50;0.13;;;27.40;97.40;;;;;;5028521;28;20027;-79
2022/09/02 12:24:18;;;;;;;0.15;0.10;;;27.60;97.60;;;;;;5023489;28;20128;-80
2022/09/02 12:26:43;;;;;;;0.28;0.10;;;27.30;96.80;;;;;;5044116;28;20132;-77
2022/09/02 12:29:33;;;;;;;0.70;0.20;;;27.00;97.40;;;;;;5026123;28;20120;-78
2022/09/02 12:31:58;;;;;;;;;;;27.20;98.10;;;;;;5017061;28;20665;-76
2022/09/02 12:34:24;;;;;;;0.20;0.10;;;27.40;97.60;;;;;;5043545;28;19909;-77
2022/09/02 12:37:02;;;;;;;0.82;0.13;;;27.50;97.70;;;;;;5026751;28;20025;-80
2022/09/02 12:39:29;;;;;;;1.93;0.17;;;27.50;97.20;;;;;;4989604;28;1079179;-77
2022/09/02 12:42:08;;;;;;;0.35;0.10;;;27.20;97.40;;;;;;5022783;28;20079;-79
2022/09/02 12:44:56;;;;;;;0.50;0.20;;;27.20;97.30;;;;;;5027477;28;20048;-78
2022/09/02 12:47:29;;;;;;;0.52;0.13;;;27.20;97.40;;;;;;5027128;28;20017;-77
2022/09/02 12:50:37;;;;;;;0.70;0.15;;;27.00;97.00;;;;;;5043382;28;20029;-78
2022/09/02 12:53:13;;;;;;;0.50;0.20;;;26.80;97.80;;;;;;5012990;28;20037;-77
2022/09/02 12:55:40;;;;;;;0.50;0.20;;;26.70;98.10;;;;;;5024936;28;20404;-78
2022/09/02 12:58:13;;;;;;;0.20;0.10;;;27.20;98.00;;;;;;5043804;28;20021;-78
2022/09/02 13:00:50;;;;;;;0.50;0.10;;;27.60;97.60;;;;;;5043293;28;20029;-76
2022/09/02 13:03:38;;;;;;;0.73;0.20;;;27.60;97.70;;;;;;5041132;28;20063;-77
2022/09/02 13:06:24;;;;;;;1.05;0.10;;;27.60;97.50;;;;;;5025185;28;20488;-78
2022/09/02 13:08:55;;;;;;;0.10;0.10;;;27.70;97.40;;;;;;5044163;28;20031;-78